AirNav   ProFlight Series 2 Aviation Headset
 
 814 users online  

3FL4 Knobel Heliport
Cocoa, Florida, USA

GOING TO COCOA?


FAA INFORMATION EFFECTIVE 18 JUNE 2020

Location

FAA Identifier: 3FL4
Lat/Long: 28-14-54.4300N 080-39-43.0900W
28-14.907167N 080-39.718167W
28.2484528,-80.6619694
(estimated)
Elevation: 38 ft. / 12 m (estimated)
Variation: 04W (1995)
From city: 5 miles SE of COCOA, FL
Time zone: UTC -4 (UTC -5 during Standard Time)
Zip code: 32940

Heliport Operations

Heliport use: Private use. Permission required prior to landing
Activation date: 03/1999
Control tower: no
ARTCC: JACKSONVILLE CENTER
FSS: SAINT PETERSBURG FLIGHT SERVICE STATION
Attendance: UNATNDD
Wind indicator: yes
Segmented circle: no

Heliport Communications

WX AWOS-3 at COI (6 nm N): 119.025 (321-986-8864)
WX ASOS at MLB (9 nm S): PHONE 321-951-7575
WX AWOS-3PT at TIX (18 nm NW): 120.625 (321-567-6090)
WX AWOS-3 at X59 (18 nm S): 122.725

Nearby radio navigation aids

VOR radial/distance  VOR name  Freq  Var
MLBr358/8.7MELBOURNE VOR/DME110.0007W
TRVr352/35.4TREASURE VORTAC117.3007W
ORLr116/39.7ORLANDO VORTAC112.2000E

Heliport Services

Runway Information

Helipad H1

Dimensions: 25 x 25 ft. / 8 x 8 m
Surface: concrete
Traffic pattern: leftleft

Heliport Ownership and Management from official FAA records

Ownership: Privately-owned
Owner: JJK CO LC & HEINZ KNOBEL
6455 SOUTH TROPICAL TERRACE
MERRITT ISLAND, FL 32952
Phone 407-723-8200

Heliport Operational Statistics

Aircraft based on the field: 1
Helicopters: 1
    

Additional Remarks

35 FT POWER LINES 375 FT NORTH & 490 FT EAST OF HELIPAD.
FOR CD CTC ORLANDO APCH AT 407-852-7553.

Instrument Procedures

There are no published instrument procedures at 3FL4.

Some nearby airports with instrument procedures:

KCOF - Patrick Air Force Base (3 nm E)
KCOI - Merritt Island Airport (6 nm N)
KMLB - Melbourne International Airport (9 nm S)
KXMR - Cape Canaveral Air Force Station Skid Strip (14 nm N)
KTIX - Space Coast Regional Airport (18 nm NW)
 
Loc | Ops | Rwys | IFR | FBO | Links
Com | Nav | Svcs | Stats | Notes


 
Area around 3FL4 (Knobel Heliport)
 
Road maps at: MapQuest Bing Google
 
Aerial photo
No photo
 
Sectional chart

 
Airport distance calculator
Flying to Knobel Heliport? Find the distance to fly.

From to 3FL4

Sunrise and sunset
Times for 05-Jul-2020
 Local
(UTC-4)
 Zulu
(UTC)
Morning civil twilight06:0610:06
Sunrise06:3210:32
Sunset20:2200:22
Evening civil twilight20:4900:49

Current date and time
Zulu (UTC)  05-Jul-2020 13:57:23
Local (UTC-4)  05-Jul-2020 09:57:23
 
METAR
KCOF 
5nm SE 
051256Z AUTO 22008KT 10SM CLR 28/24 A2998 RMK AO2 SLP157 T02800235 $
KMLB 
9nm S 
051353Z 22005KT 10SM CLR 29/25 A2998 RMK AO2 SLP152 T02890250 $
KXMR 
15nm NE 
051256Z AUTO 24006KT 10SM CLR 28/24 A2997 RMK AO2 SLP152 T02760238 $
KTIX 
17nm N 
051250Z 21006KT 7SM CLR 28/22 A2999
TAF
KMLB 
9nm S 
051139Z 0512/0612 21005KT P6SM SCT250 FM051400 23006KT P6SM SCT035 SCT120 BKN250 FM051800 11008KT P6SM VCTS SCT035CB SCT060 TEMPO 0518/0521 3SM TSRA BKN035CB BKN050 OVC080 FM052300 24004KT P6SM VCSH SCT035 BKN100 FM060300 19004KT P6SM SCT120 BKN250 FM060600 20004KT P6SM SCT250
KTIX 
17nm N 
051139Z 0512/0612 20005KT P6SM SCT250 FM051400 23005KT P6SM SCT035 SCT120 BKN200 FM051730 11007KT P6SM VCTS SCT035CB SCT060 TEMPO 0518/0521 3SM TSRA BKN035CB BKN050 OVC080 FM052300 24004KT P6SM VCSH SCT035 BKN100 FM060300 19004KT P6SM SCT120 BKN250 FM060600 23003KT P6SM SCT250
NOTAMs
Click for the latest NOTAMs
NOTAMs are issued by the DoD/FAA and will open in a separate window not controlled by AirNav.

 

 
 

Would you like to see your business listed on this page?

 If your business provides an interesting product or service to pilots, flight crews, aircraft, or users of the Knobel Heliport, you should consider listing it here.  To start the listing process, click on the button below
 
Add a business
 

Other Pages about Knobel Heliport

Update a link
 
Copyright © AirNav, LLC. All rights reserved. Privacy Policy  Contact